createdAt,value
2022-10-22T00:00:25.202Z,0.00
2022-10-22T00:01:25.144Z,0.00
2022-10-22T00:02:25.219Z,0.00
2022-10-22T00:03:25.131Z,0.00
2022-10-22T00:04:25.167Z,0.00
2022-10-22T00:05:25.096Z,0.00
2022-10-22T00:06:25.129Z,0.00
2022-10-22T00:07:25.093Z,0.00
2022-10-22T00:08:25.075Z,0.00
2022-10-22T00:09:25.054Z,0.00
2022-10-22T00:10:25.077Z,0.00
2022-10-22T00:11:25.985Z,0.00
2022-10-22T00:12:25.020Z,0.00
2022-10-22T00:13:25.077Z,0.00
2022-10-22T00:14:25.007Z,0.00
2022-10-22T00:15:24.992Z,0.00
2022-10-22T00:16:25.008Z,0.00
2022-10-22T00:17:24.996Z,0.00
2022-10-22T00:18:25.000Z,0.00
2022-10-22T00:19:24.952Z,0.00
2022-10-22T00:20:24.958Z,0.00
2022-10-22T00:21:24.969Z,0.00
2022-10-22T00:22:24.941Z,0.00
2022-10-22T00:23:24.908Z,0.00
2022-10-22T00:24:24.883Z,0.00
2022-10-22T00:25:24.882Z,0.00
2022-10-22T00:26:24.889Z,0.00
2022-10-22T00:27:24.887Z,0.00
2022-10-22T00:28:24.861Z,0.00
2022-10-22T00:29:24.842Z,0.00
2022-10-22T00:30:24.825Z,0.00
2022-10-22T00:31:24.822Z,0.00
2022-10-22T00:32:24.803Z,0.00
2022-10-22T00:33:24.822Z,0.00
2022-10-22T00:34:24.770Z,0.00
2022-10-22T00:35:24.796Z,0.00
2022-10-22T00:36:24.749Z,0.00
2022-10-22T00:37:24.743Z,0.00
2022-10-22T00:38:24.724Z,0.00
2022-10-22T00:39:24.723Z,0.00
2022-10-22T00:40:24.705Z,0.00
2022-10-22T00:41:24.744Z,0.00
2022-10-22T00:42:24.683Z,0.00
2022-10-22T00:43:24.677Z,0.00
2022-10-22T00:44:34.880Z,0.00
2022-10-22T00:45:24.690Z,0.00
2022-10-22T00:46:24.641Z,0.00
2022-10-22T00:47:24.639Z,0.00
2022-10-22T00:48:24.617Z,0.00
2022-10-22T00:49:24.606Z,0.00
2022-10-22T00:50:24.627Z,0.00
2022-10-22T00:51:24.606Z,0.00
2022-10-22T00:52:24.609Z,0.00
2022-10-22T00:53:24.568Z,0.00
2022-10-22T00:54:24.558Z,0.00
2022-10-22T00:55:24.572Z,0.00
2022-10-22T00:56:24.548Z,0.00
2022-10-22T00:57:24.513Z,0.00
2022-10-22T00:58:24.536Z,0.00
2022-10-22T00:59:24.521Z,0.00
2022-10-22T01:00:24.490Z,0.00
2022-10-22T01:01:24.571Z,0.00
2022-10-22T01:02:24.468Z,0.00
2022-10-22T01:03:24.471Z,0.00
2022-10-22T01:04:24.441Z,0.00
2022-10-22T01:05:24.431Z,0.00
2022-10-22T01:06:24.425Z,0.00
2022-10-22T01:07:24.433Z,0.00
2022-10-22T01:08:24.403Z,0.00
2022-10-22T01:09:24.394Z,0.00
2022-10-22T01:10:24.377Z,0.00
2022-10-22T01:11:24.398Z,0.00
2022-10-22T01:12:24.365Z,0.00
2022-10-22T01:13:24.392Z,0.00
2022-10-22T01:14:24.334Z,0.00
2022-10-22T01:15:24.334Z,0.00
2022-10-22T01:16:24.313Z,0.00
2022-10-22T01:17:24.305Z,0.00
2022-10-22T01:18:24.289Z,0.00
2022-10-22T01:19:24.314Z,0.00
2022-10-22T01:20:24.298Z,0.00
2022-10-22T01:21:24.285Z,0.00
2022-10-22T01:22:24.260Z,0.00
2022-10-22T01:23:24.226Z,0.00
2022-10-22T01:24:24.221Z,0.00
2022-10-22T01:25:24.213Z,0.00
2022-10-22T01:27:24.216Z,0.00
2022-10-22T01:28:24.179Z,0.00
2022-10-22T01:29:24.189Z,0.00
2022-10-22T01:30:24.157Z,0.00
2022-10-22T01:31:24.163Z,0.00
2022-10-22T01:32:24.149Z,0.00
2022-10-22T01:33:24.119Z,0.00
2022-10-22T01:34:24.256Z,0.00
2022-10-22T01:35:24.181Z,0.00
2022-10-22T01:36:24.100Z,0.00
2022-10-22T01:37:24.126Z,0.00
2022-10-22T01:38:24.113Z,0.00
2022-10-22T01:39:24.060Z,0.00
2022-10-22T01:40:24.057Z,0.00
2022-10-22T01:41:24.036Z,0.00
2022-10-22T01:42:24.022Z,0.00
2022-10-22T01:43:24.013Z,0.00
2022-10-22T01:44:24.099Z,0.00
2022-10-22T01:45:23.990Z,0.00
2022-10-22T01:46:23.980Z,0.00
2022-10-22T01:47:23.973Z,0.00
2022-10-22T01:48:23.979Z,0.00
2022-10-22T01:49:23.955Z,0.00
2022-10-22T01:50:23.979Z,0.00
2022-10-22T01:51:23.966Z,0.00
2022-10-22T01:52:23.935Z,0.00
2022-10-22T01:53:23.921Z,0.00
2022-10-22T01:54:23.884Z,0.00
2022-10-22T01:55:23.900Z,0.00
2022-10-22T01:56:23.919Z,0.00
2022-10-22T01:57:23.870Z,0.00
2022-10-22T01:58:23.876Z,0.00
2022-10-22T01:59:23.835Z,0.00
2022-10-22T02:00:23.837Z,0.00
2022-10-22T02:01:23.821Z,0.00
2022-10-22T02:02:23.846Z,0.00
2022-10-22T02:03:24.015Z,0.00
2022-10-22T02:04:23.798Z,0.00
2022-10-22T02:05:23.768Z,0.00
2022-10-22T02:06:23.764Z,0.00
2022-10-22T02:07:23.749Z,0.00
2022-10-22T02:08:23.774Z,0.00
2022-10-22T02:09:23.738Z,0.00
2022-10-22T02:10:23.739Z,0.00
2022-10-22T02:11:23.751Z,0.00
2022-10-22T02:12:23.709Z,0.00
2022-10-22T02:13:23.718Z,0.00
2022-10-22T02:14:23.675Z,0.00
2022-10-22T02:15:23.695Z,0.00
2022-10-22T02:16:23.664Z,0.00
2022-10-22T02:17:23.632Z,0.00
2022-10-22T02:18:23.699Z,0.00
2022-10-22T02:19:23.621Z,0.00
2022-10-22T02:20:23.634Z,0.00
2022-10-22T02:21:23.602Z,0.00
2022-10-22T02:22:23.578Z,0.00
2022-10-22T02:23:23.577Z,0.00
2022-10-22T02:24:23.563Z,0.00
2022-10-22T02:25:23.579Z,0.00
2022-10-22T02:26:23.546Z,0.00
2022-10-22T02:27:26.029Z,0.00
2022-10-22T02:28:23.530Z,0.00
2022-10-22T02:29:23.506Z,0.00
2022-10-22T02:30:23.531Z,0.00
2022-10-22T02:31:23.485Z,0.00
2022-10-22T02:32:23.486Z,0.00
2022-10-22T02:33:23.463Z,0.00
2022-10-22T02:34:23.456Z,0.00
2022-10-22T02:35:23.466Z,0.00
2022-10-22T02:36:23.431Z,0.00
2022-10-22T02:37:23.415Z,0.00
2022-10-22T02:38:23.435Z,0.00
2022-10-22T02:39:23.412Z,0.00
2022-10-22T02:40:23.388Z,0.00
2022-10-22T02:41:23.414Z,0.00
2022-10-22T02:42:23.380Z,0.00
2022-10-22T02:43:23.354Z,0.00
2022-10-22T02:44:23.379Z,0.00
2022-10-22T02:45:24.270Z,0.00
2022-10-22T02:46:23.319Z,0.00
2022-10-22T02:47:24.300Z,0.00
2022-10-22T02:48:23.307Z,0.00
2022-10-22T02:49:23.271Z,0.00
2022-10-22T02:50:23.282Z,0.00
2022-10-22T02:51:23.261Z,0.00
2022-10-22T02:52:23.280Z,0.00
2022-10-22T02:53:23.263Z,0.00
2022-10-22T02:54:23.244Z,0.00
2022-10-22T02:55:24.186Z,0.00
2022-10-22T02:56:23.207Z,0.00
2022-10-22T02:57:23.350Z,0.00
2022-10-22T02:58:23.219Z,0.00
2022-10-22T02:59:23.184Z,0.00
2022-10-22T03:00:23.164Z,0.00
2022-10-22T03:01:23.238Z,0.00
2022-10-22T03:02:23.159Z,0.00
2022-10-22T03:03:23.125Z,0.00
2022-10-22T03:04:23.132Z,0.00
2022-10-22T03:05:23.095Z,0.00
2022-10-22T03:06:23.170Z,0.00
2022-10-22T03:07:23.085Z,0.00
2022-10-22T03:08:23.068Z,0.00
2022-10-22T03:09:24.859Z,0.00
2022-10-22T03:10:23.060Z,0.00
2022-10-22T03:11:23.981Z,0.00
2022-10-22T03:12:23.069Z,0.00
2022-10-22T03:13:23.030Z,0.00
2022-10-22T03:14:23.014Z,0.00
2022-10-22T03:15:23.020Z,0.00
2022-10-22T03:16:23.003Z,0.00
2022-10-22T03:17:22.969Z,0.00
2022-10-22T03:18:22.996Z,0.00
2022-10-22T03:19:22.959Z,0.00
2022-10-22T03:20:22.939Z,0.00
2022-10-22T03:21:22.921Z,0.00
2022-10-22T03:22:22.925Z,0.00
2022-10-22T03:23:22.938Z,0.00
2022-10-22T03:24:22.900Z,0.00
2022-10-22T03:25:22.880Z,0.00
2022-10-22T03:26:22.873Z,0.00
2022-10-22T03:27:22.859Z,0.00
2022-10-22T03:28:22.853Z,0.00
2022-10-22T03:29:22.860Z,0.00
2022-10-22T03:30:22.838Z,0.00
2022-10-22T03:31:22.817Z,0.00
2022-10-22T03:32:22.813Z,0.00
2022-10-22T03:33:22.804Z,0.00
2022-10-22T03:34:22.825Z,0.00
2022-10-22T03:35:22.785Z,0.00
2022-10-22T03:36:22.777Z,0.00
2022-10-22T03:37:22.767Z,0.00
2022-10-22T03:38:22.739Z,0.00
2022-10-22T03:39:22.735Z,0.00
2022-10-22T03:40:22.773Z,0.00
2022-10-22T03:41:22.717Z,0.00
2022-10-22T03:42:22.715Z,0.00
2022-10-22T03:43:22.694Z,0.00
2022-10-22T03:44:22.679Z,0.00
2022-10-22T03:45:22.674Z,0.00
2022-10-22T03:46:22.675Z,0.00
2022-10-22T03:47:22.656Z,0.00
2022-10-22T03:48:22.634Z,0.00
2022-10-22T03:49:22.617Z,0.00
2022-10-22T03:50:22.659Z,0.00
2022-10-22T03:51:22.601Z,0.00
2022-10-22T03:52:22.590Z,0.00
2022-10-22T03:53:22.585Z,0.00
2022-10-22T03:54:22.568Z,0.00
2022-10-22T03:55:22.593Z,0.00
2022-10-22T03:56:22.636Z,0.00
2022-10-22T03:57:22.523Z,0.00
2022-10-22T03:58:22.523Z,0.00
2022-10-22T03:59:22.539Z,0.00
2022-10-22T04:00:22.501Z,0.00
2022-10-22T04:01:22.636Z,0.00
2022-10-22T04:02:22.501Z,0.00
2022-10-22T04:03:22.466Z,0.00
2022-10-22T04:04:22.462Z,0.00
2022-10-22T04:05:22.457Z,0.00
2022-10-22T04:06:22.434Z,0.00
2022-10-22T04:07:22.444Z,0.00
2022-10-22T04:08:22.403Z,0.00
2022-10-22T04:09:22.415Z,0.00
2022-10-22T04:10:22.399Z,0.00
2022-10-22T04:11:22.380Z,0.00
2022-10-22T04:12:22.418Z,0.00
2022-10-22T04:13:22.349Z,0.00
2022-10-22T04:14:22.365Z,0.00
2022-10-22T04:15:23.809Z,0.00
2022-10-22T04:16:24.026Z,0.00
2022-10-22T04:17:22.311Z,0.00
2022-10-22T04:18:22.327Z,0.00
2022-10-22T04:19:22.283Z,0.00
2022-10-22T04:20:24.247Z,0.00
2022-10-22T04:21:22.277Z,0.00
2022-10-22T04:22:22.298Z,0.00
2022-10-22T04:23:22.256Z,0.00
2022-10-22T04:24:22.238Z,0.00
2022-10-22T04:25:22.229Z,0.00
2022-10-22T04:26:22.410Z,0.00
2022-10-22T04:27:22.203Z,0.00
2022-10-22T04:28:22.210Z,0.00
2022-10-22T04:29:22.171Z,0.00
2022-10-22T04:30:22.181Z,0.00
2022-10-22T04:31:22.181Z,0.00
2022-10-22T04:32:22.149Z,0.00
2022-10-22T04:33:22.131Z,0.00
2022-10-22T04:34:22.135Z,0.00
2022-10-22T04:35:22.153Z,0.00
2022-10-22T04:36:22.141Z,0.00
2022-10-22T04:37:22.089Z,0.00
2022-10-22T04:38:23.037Z,0.00
2022-10-22T04:39:22.083Z,0.00
2022-10-22T04:40:22.083Z,0.00
2022-10-22T04:41:22.053Z,0.00
2022-10-22T04:42:22.073Z,0.00
2022-10-22T04:43:22.067Z,0.00
2022-10-22T04:44:22.022Z,0.00
2022-10-22T04:45:22.020Z,0.00
2022-10-22T04:46:21.998Z,0.00
2022-10-22T04:47:21.975Z,0.00
2022-10-22T04:48:22.154Z,0.00
2022-10-22T04:49:21.957Z,0.00
2022-10-22T04:50:22.007Z,0.00
2022-10-22T04:51:22.057Z,0.00
2022-10-22T04:52:21.924Z,0.00
2022-10-22T04:53:21.929Z,0.00
2022-10-22T04:54:21.946Z,0.00
2022-10-22T04:55:21.952Z,0.00
2022-10-22T04:56:21.877Z,0.00
2022-10-22T04:57:21.879Z,0.00
2022-10-22T04:58:21.858Z,0.00
2022-10-22T04:59:21.869Z,0.00
2022-10-22T05:00:21.846Z,0.00
2022-10-22T05:01:22.017Z,0.00
2022-10-22T05:02:21.822Z,0.00
2022-10-22T05:03:21.851Z,0.00
2022-10-22T05:04:21.809Z,0.00
2022-10-22T05:05:21.778Z,0.00
2022-10-22T05:06:21.789Z,0.00
2022-10-22T05:07:21.955Z,0.00
2022-10-22T05:08:21.746Z,0.00
2022-10-22T05:09:21.782Z,0.00
2022-10-22T05:10:21.731Z,0.00
2022-10-22T05:11:21.715Z,0.00
2022-10-22T05:12:21.719Z,0.00
2022-10-22T05:13:21.747Z,0.00
2022-10-22T05:14:21.673Z,0.00
2022-10-22T05:15:21.711Z,0.00
2022-10-22T05:16:21.657Z,0.00
2022-10-22T05:17:21.644Z,0.00
2022-10-22T05:18:22.642Z,0.00
2022-10-22T05:19:21.673Z,0.00
2022-10-22T05:20:21.604Z,0.00
2022-10-22T05:21:21.614Z,0.00
2022-10-22T05:22:21.606Z,0.00
2022-10-22T05:23:21.593Z,0.00
2022-10-22T05:24:21.584Z,0.00
2022-10-22T05:25:21.576Z,0.00
2022-10-22T05:26:21.539Z,0.00
2022-10-22T05:27:21.627Z,0.00
2022-10-22T05:28:21.526Z,0.00
2022-10-22T05:29:21.507Z,0.00
2022-10-22T05:30:21.505Z,0.00
2022-10-22T05:31:21.495Z,0.00
2022-10-22T05:32:21.488Z,0.00
2022-10-22T05:33:24.027Z,0.00
2022-10-22T05:34:21.491Z,0.00
2022-10-22T05:35:21.459Z,0.00
2022-10-22T05:36:21.461Z,0.00
2022-10-22T05:37:21.449Z,0.00
2022-10-22T05:38:21.440Z,0.00
2022-10-22T05:39:22.384Z,0.00
2022-10-22T05:40:30.590Z,0.00
2022-10-22T05:41:22.384Z,0.00
2022-10-22T05:42:21.361Z,0.00
2022-10-22T05:43:21.361Z,0.00
2022-10-22T05:44:21.373Z,0.00
2022-10-22T05:45:23.003Z,0.00
2022-10-22T05:46:22.860Z,0.00
2022-10-22T05:47:21.313Z,4.00
2022-10-22T05:48:21.334Z,4.00
2022-10-22T05:49:21.317Z,0.00
2022-10-22T05:50:21.313Z,4.00
2022-10-22T05:51:21.283Z,4.00
2022-10-22T05:52:21.265Z,4.00
2022-10-22T05:53:21.243Z,8.00
2022-10-22T05:54:21.264Z,8.00
2022-10-22T05:55:21.224Z,8.00
2022-10-22T05:56:21.216Z,12.00
2022-10-22T05:57:21.200Z,12.00
2022-10-22T05:58:21.185Z,12.00
2022-10-22T05:59:21.186Z,16.00
2022-10-22T06:00:21.189Z,20.00
2022-10-22T06:01:21.162Z,24.00
2022-10-22T06:02:21.211Z,20.00
2022-10-22T06:03:21.137Z,28.00
2022-10-22T06:04:21.117Z,28.00
2022-10-22T06:05:21.106Z,32.00
2022-10-22T06:06:21.122Z,36.00
2022-10-22T06:07:21.479Z,40.00
2022-10-22T06:08:21.108Z,44.00
2022-10-22T06:09:21.064Z,48.00
2022-10-22T06:10:21.062Z,52.00
2022-10-22T06:11:21.033Z,60.00
2022-10-22T06:12:21.033Z,64.00
2022-10-22T06:13:21.019Z,72.00
2022-10-22T06:14:21.065Z,76.00
2022-10-22T06:15:21.001Z,84.00
2022-10-22T06:16:20.990Z,92.00
2022-10-22T06:17:21.022Z,96.00
2022-10-22T06:18:21.218Z,104.00
2022-10-22T06:19:20.984Z,108.00
2022-10-22T06:20:20.932Z,112.00
2022-10-22T06:21:20.922Z,112.00
2022-10-22T06:22:20.903Z,120.00
2022-10-22T06:23:20.927Z,124.00
2022-10-22T06:24:20.920Z,132.00
2022-10-22T06:25:20.933Z,136.00
2022-10-22T06:26:20.875Z,144.00
2022-10-22T06:27:20.912Z,152.00
2022-10-22T06:28:20.883Z,156.00
2022-10-22T06:29:21.784Z,168.00
2022-10-22T06:30:20.836Z,176.00
2022-10-22T06:31:20.822Z,184.00
2022-10-22T06:32:20.806Z,188.00
2022-10-22T06:33:20.825Z,196.00
2022-10-22T06:34:20.779Z,204.00
2022-10-22T06:35:20.764Z,208.00
2022-10-22T06:38:33.374Z,256.00
2022-10-22T06:39:32.646Z,272.00
2022-10-22T06:40:32.576Z,288.00
2022-10-22T06:41:32.528Z,296.00
2022-10-22T06:53:06.672Z,584.00
2022-10-22T06:54:04.979Z,588.00
2022-10-22T06:55:05.013Z,612.00
2022-10-22T06:56:04.971Z,644.00
2022-10-22T06:57:05.032Z,636.00
2022-10-22T06:58:04.940Z,636.00
2022-10-22T06:59:04.950Z,640.00
2022-10-22T07:00:04.951Z,652.00
2022-10-22T07:01:06.452Z,664.00
2022-10-22T07:02:04.912Z,656.00
2022-10-22T07:03:04.915Z,652.00
2022-10-22T07:04:04.889Z,648.00
2022-10-22T07:05:04.870Z,652.00
2022-10-22T07:06:04.858Z,644.00
2022-10-22T07:07:04.861Z,624.00
2022-10-22T07:08:04.832Z,628.00
2022-10-22T07:09:04.900Z,664.00
2022-10-22T07:10:05.548Z,672.00
2022-10-22T07:11:04.813Z,676.00
2022-10-22T07:12:04.785Z,700.00
2022-10-22T07:13:04.807Z,688.00
2022-10-22T07:14:04.766Z,664.00
2022-10-22T07:15:04.766Z,640.00
2022-10-22T07:16:04.752Z,624.00
2022-10-22T07:17:04.735Z,608.00
2022-10-22T07:18:04.733Z,580.00
2022-10-22T07:19:04.755Z,600.00
2022-10-22T07:20:05.682Z,716.00
2022-10-22T07:21:04.686Z,784.00
2022-10-22T07:22:04.720Z,792.00
2022-10-22T07:23:04.672Z,748.00
2022-10-22T07:24:04.693Z,684.00
2022-10-22T07:25:07.362Z,692.00
2022-10-22T07:26:04.709Z,716.00
2022-10-22T07:27:08.139Z,756.00
2022-10-22T07:28:06.650Z,792.00
2022-10-22T07:29:04.596Z,816.00
2022-10-22T07:30:04.594Z,856.00
2022-10-22T07:31:04.604Z,880.00
2022-10-22T07:32:04.584Z,812.00
2022-10-22T07:33:04.563Z,752.00
2022-10-22T07:34:04.552Z,748.00
2022-10-22T07:35:05.478Z,736.00
2022-10-22T07:36:04.536Z,696.00
2022-10-22T07:37:05.524Z,652.00
2022-10-22T07:38:04.550Z,696.00
2022-10-22T07:39:04.488Z,780.00
2022-10-22T07:40:04.483Z,824.00
2022-10-22T07:41:04.464Z,876.00
2022-10-22T07:42:04.467Z,884.00
2022-10-22T07:43:05.488Z,908.00
2022-10-22T07:44:04.448Z,976.00
2022-10-22T07:45:04.425Z,1044.00
2022-10-22T07:46:04.436Z,1112.00
2022-10-22T07:47:05.846Z,1148.00
2022-10-22T07:48:05.530Z,1128.00
2022-10-22T07:49:05.340Z,1112.00
2022-10-22T07:50:04.472Z,1112.00
2022-10-22T07:51:04.383Z,1104.00
2022-10-22T07:52:04.372Z,1068.00
2022-10-22T07:53:04.336Z,1024.00
2022-10-22T07:54:05.130Z,1080.00
2022-10-22T07:55:04.384Z,1124.00
2022-10-22T07:56:04.319Z,1160.00
2022-10-22T07:57:05.252Z,1184.00
2022-10-22T07:58:04.285Z,1184.00
2022-10-22T07:59:04.330Z,1172.00
2022-10-22T08:00:04.282Z,1124.00
2022-10-22T08:01:04.367Z,884.00
2022-10-22T08:02:04.314Z,840.00
2022-10-22T08:03:04.242Z,888.00
2022-10-22T08:04:04.221Z,864.00
2022-10-22T08:05:04.196Z,900.00
2022-10-22T08:06:04.203Z,1488.00
2022-10-22T08:07:04.209Z,1388.00
2022-10-22T08:08:04.267Z,1360.00
2022-10-22T08:09:04.188Z,1500.00
2022-10-22T08:10:05.607Z,1604.00
2022-10-22T08:11:04.170Z,1480.00
2022-10-22T08:12:05.073Z,1224.00
2022-10-22T08:13:04.118Z,1272.00
2022-10-22T08:14:04.103Z,1172.00
2022-10-22T08:15:04.110Z,996.00
2022-10-22T08:16:04.112Z,1020.00
2022-10-22T08:17:04.109Z,1020.00
2022-10-22T08:18:04.087Z,988.00
2022-10-22T08:19:04.035Z,1112.00
2022-10-22T08:20:04.036Z,1240.00
2022-10-22T08:21:04.037Z,1264.00
2022-10-22T08:22:04.009Z,1284.00
2022-10-22T08:23:04.053Z,1000.00
2022-10-22T08:24:04.054Z,996.00
2022-10-22T08:25:03.991Z,1000.00
2022-10-22T08:26:03.968Z,1224.00
2022-10-22T08:27:04.910Z,1044.00
2022-10-22T08:28:03.949Z,1004.00
2022-10-22T08:29:03.987Z,1204.00
2022-10-22T08:30:03.935Z,1252.00
2022-10-22T08:31:03.921Z,1132.00
2022-10-22T08:32:03.904Z,1044.00
2022-10-22T08:33:04.017Z,1084.00
2022-10-22T08:34:03.885Z,1180.00
2022-10-22T08:35:03.921Z,1272.00
2022-10-22T08:36:03.851Z,1140.00
2022-10-22T08:37:03.865Z,1252.00
2022-10-22T08:38:03.852Z,1492.00
2022-10-22T08:39:03.827Z,1548.00
2022-10-22T08:40:03.832Z,1444.00
2022-10-22T08:41:03.830Z,1568.00
2022-10-22T08:42:03.811Z,1444.00
2022-10-22T08:43:03.781Z,1436.00
2022-10-22T08:44:03.790Z,1532.00
2022-10-22T08:45:03.783Z,1440.00
2022-10-22T08:46:03.750Z,1604.00
2022-10-22T08:47:03.729Z,1912.00
2022-10-22T08:48:03.764Z,1700.00
2022-10-22T08:49:04.760Z,1608.00
2022-10-22T08:50:03.722Z,1528.00
2022-10-22T08:51:03.697Z,1628.00
2022-10-22T08:52:03.686Z,1656.00
2022-10-22T08:53:03.667Z,1696.00
2022-10-22T08:54:03.719Z,1908.00
2022-10-22T08:55:03.642Z,1828.00
2022-10-22T08:56:03.636Z,1952.00
2022-10-22T08:57:03.616Z,1980.00
2022-10-22T08:58:03.626Z,2016.00
2022-10-22T08:59:03.667Z,1996.00
2022-10-22T09:00:03.587Z,2016.00
2022-10-22T09:01:04.530Z,2076.00
2022-10-22T09:02:03.567Z,2184.00
2022-10-22T09:03:03.559Z,2184.00
2022-10-22T09:04:03.560Z,2136.00
2022-10-22T09:05:03.559Z,2104.00
2022-10-22T09:06:03.543Z,2040.00
2022-10-22T09:07:03.519Z,1908.00
2022-10-22T09:08:03.539Z,2028.00
2022-10-22T09:09:03.556Z,2020.00
2022-10-22T09:10:03.493Z,1896.00
2022-10-22T09:11:03.469Z,1916.00
2022-10-22T09:12:03.491Z,1996.00
2022-10-22T09:13:03.461Z,2076.00
2022-10-22T09:14:03.515Z,2196.00
2022-10-22T09:15:03.432Z,2316.00
2022-10-22T09:16:04.413Z,2292.00
2022-10-22T09:17:03.422Z,2160.00
2022-10-22T09:18:03.417Z,2216.00
2022-10-22T09:19:03.417Z,2228.00
2022-10-22T09:20:03.371Z,2200.00
2022-10-22T09:21:05.335Z,2152.00
2022-10-22T09:22:03.365Z,2116.00
2022-10-22T09:23:03.364Z,2128.00
2022-10-22T09:24:03.348Z,2016.00
2022-10-22T09:25:03.334Z,2132.00
2022-10-22T09:26:03.363Z,2000.00
2022-10-22T09:27:03.297Z,2164.00
2022-10-22T09:28:03.309Z,2068.00
2022-10-22T09:29:03.290Z,1740.00
2022-10-22T09:30:03.440Z,1684.00
2022-10-22T09:31:03.282Z,1712.00
2022-10-22T09:32:03.252Z,1644.00
2022-10-22T09:33:03.249Z,1828.00
2022-10-22T09:34:03.223Z,1768.00
2022-10-22T09:35:03.248Z,1976.00
2022-10-22T09:36:03.217Z,2132.00
2022-10-22T09:37:03.181Z,2216.00
2022-10-22T09:38:03.174Z,2216.00
2022-10-22T09:39:03.208Z,2308.00
2022-10-22T09:40:03.140Z,2312.00
2022-10-22T09:41:03.237Z,2456.00
2022-10-22T09:42:03.127Z,2516.00
2022-10-22T09:43:03.112Z,2384.00
2022-10-22T09:44:03.110Z,2504.00
2022-10-22T09:45:03.150Z,2660.00
2022-10-22T09:46:03.150Z,2752.00
2022-10-22T09:47:03.092Z,2572.00
2022-10-22T09:48:03.672Z,2664.00
2022-10-22T09:49:03.056Z,2696.00
2022-10-22T09:50:03.079Z,2584.00
2022-10-22T09:51:03.099Z,2732.00
2022-10-22T09:52:03.036Z,2836.00
2022-10-22T09:53:02.997Z,2828.00
2022-10-22T09:54:03.076Z,2800.00
2022-10-22T09:55:03.048Z,2804.00
2022-10-22T09:56:02.990Z,2816.00
2022-10-22T09:57:02.964Z,2808.00
2022-10-22T09:58:02.945Z,2904.00
2022-10-22T09:59:02.978Z,2932.00
2022-10-22T10:00:02.927Z,3100.00
2022-10-22T10:01:02.997Z,2976.00
2022-10-22T10:02:13.607Z,2892.00
2022-10-22T10:03:03.936Z,2724.00
2022-10-22T10:04:06.908Z,2692.00
2022-10-22T10:05:03.897Z,2688.00
2022-10-22T10:06:05.070Z,2864.00
2022-10-22T10:07:02.871Z,2736.00
2022-10-22T10:08:02.854Z,2780.00
2022-10-22T10:09:02.918Z,3096.00
2022-10-22T10:10:02.809Z,3028.00
2022-10-22T10:11:02.916Z,2832.00
2022-10-22T10:12:02.792Z,2772.00
2022-10-22T10:13:02.783Z,2796.00
2022-10-22T10:14:02.787Z,2644.00
2022-10-22T10:15:02.766Z,2704.00
2022-10-22T10:16:02.742Z,2848.00
2022-10-22T10:17:02.766Z,2648.00
2022-10-22T10:18:02.724Z,2600.00
2022-10-22T10:19:02.713Z,2688.00
2022-10-22T10:20:04.060Z,2984.00
2022-10-22T10:21:02.794Z,3000.00
2022-10-22T10:22:02.683Z,2968.00
2022-10-22T10:23:02.666Z,2920.00
2022-10-22T10:24:02.676Z,2796.00
2022-10-22T10:25:02.655Z,2708.00
2022-10-22T10:26:02.678Z,2704.00
2022-10-22T10:27:02.644Z,2748.00
2022-10-22T10:28:02.776Z,2860.00
2022-10-22T10:29:02.626Z,3176.00
2022-10-22T10:30:02.625Z,3312.00
2022-10-22T10:31:03.525Z,2992.00
2022-10-22T10:32:02.584Z,2988.00
2022-10-22T10:33:02.935Z,3112.00
2022-10-22T10:34:02.550Z,2992.00
2022-10-22T10:35:02.539Z,2856.00
2022-10-22T10:36:02.518Z,2936.00
2022-10-22T10:37:02.510Z,3116.00
2022-10-22T10:38:02.501Z,3008.00
2022-10-22T10:39:02.521Z,2900.00
2022-10-22T10:40:02.493Z,3024.00
2022-10-22T10:41:02.500Z,3176.00
2022-10-22T10:42:02.450Z,3192.00
2022-10-22T10:43:02.462Z,3236.00
2022-10-22T10:44:02.451Z,3044.00
2022-10-22T10:45:02.458Z,2868.00
2022-10-22T10:46:02.407Z,2824.00
2022-10-22T10:47:02.442Z,3216.00
2022-10-22T10:48:02.376Z,3424.00
2022-10-22T10:49:02.501Z,3736.00
2022-10-22T10:50:02.352Z,3412.00
2022-10-22T10:51:03.197Z,3420.00
2022-10-22T10:52:02.357Z,3504.00
2022-10-22T10:53:02.377Z,3688.00
2022-10-22T10:54:02.338Z,3560.00
2022-10-22T10:55:02.333Z,3360.00
2022-10-22T10:56:02.318Z,3244.00
2022-10-22T10:57:02.338Z,3228.00
2022-10-22T10:58:02.369Z,3228.00
2022-10-22T10:59:02.307Z,3196.00
2022-10-22T11:00:02.288Z,3132.00
2022-10-22T11:01:02.257Z,3084.00
2022-10-22T11:02:03.698Z,3220.00
2022-10-22T11:03:04.151Z,3172.00
2022-10-22T11:04:02.217Z,3100.00
2022-10-22T11:05:03.048Z,3404.00
2022-10-22T11:06:02.213Z,3392.00
2022-10-22T11:07:10.925Z,2896.00
2022-10-22T11:08:03.178Z,2772.00
2022-10-22T11:09:02.788Z,2680.00
2022-10-22T11:10:02.742Z,2820.00
2022-10-22T11:11:02.194Z,2936.00
2022-10-22T11:12:03.598Z,2992.00
2022-10-22T11:13:02.129Z,2996.00
2022-10-22T11:14:02.105Z,2660.00
2022-10-22T11:15:02.111Z,2704.00
2022-10-22T11:16:02.121Z,2708.00
2022-10-22T11:17:02.622Z,2680.00
2022-10-22T11:18:02.170Z,2708.00
2022-10-22T11:19:02.081Z,2848.00
2022-10-22T11:20:02.046Z,2680.00
2022-10-22T11:21:02.488Z,2724.00
2022-10-22T11:22:02.963Z,2668.00
2022-10-22T11:23:18.806Z,2652.00
2022-10-22T11:24:03.036Z,2636.00
2022-10-22T11:25:02.049Z,2620.00
2022-10-22T11:26:01.983Z,2396.00
2022-10-22T11:27:01.993Z,2308.00
2022-10-22T11:28:07.815Z,2276.00
2022-10-22T11:29:02.949Z,2288.00
2022-10-22T11:30:02.012Z,2260.00
2022-10-22T11:31:01.953Z,2300.00
2022-10-22T11:32:02.045Z,2240.00
2022-10-22T11:33:01.906Z,2196.00
2022-10-22T11:34:09.935Z,2192.00
2022-10-22T11:35:02.869Z,2352.00
2022-10-22T11:36:01.867Z,2400.00
2022-10-22T11:37:01.887Z,2368.00
2022-10-22T11:38:02.822Z,2268.00
2022-10-22T11:39:01.838Z,2276.00
2022-10-22T11:40:01.813Z,2276.00
2022-10-22T11:41:01.825Z,2340.00
2022-10-22T11:42:01.789Z,2388.00
2022-10-22T11:43:01.807Z,2620.00
2022-10-22T11:44:01.771Z,2412.00
2022-10-22T11:45:01.781Z,2212.00
2022-10-22T11:46:01.881Z,2268.00
2022-10-22T11:47:01.761Z,1852.00
2022-10-22T11:48:12.009Z,2076.00
2022-10-22T11:49:01.715Z,2400.00
2022-10-22T11:50:01.729Z,2320.00
2022-10-22T11:51:01.734Z,2496.00
2022-10-22T11:52:04.357Z,2660.00
2022-10-22T11:53:01.729Z,2896.00
2022-10-22T11:54:01.706Z,3012.00
2022-10-22T11:55:02.004Z,2684.00
2022-10-22T11:56:01.634Z,2728.00
2022-10-22T11:57:01.633Z,2424.00
2022-10-22T11:58:01.614Z,2316.00
2022-10-22T11:59:01.632Z,2444.00
2022-10-22T12:00:01.625Z,2500.00
2022-10-22T12:01:01.601Z,2476.00
2022-10-22T12:02:01.586Z,2368.00
2022-10-22T12:03:03.318Z,2380.00
2022-10-22T12:04:01.548Z,2536.00
2022-10-22T12:05:02.480Z,2564.00
2022-10-22T12:06:01.743Z,2640.00
2022-10-22T12:07:01.824Z,2748.00
2022-10-22T12:08:01.504Z,2772.00
2022-10-22T12:09:01.863Z,2920.00
2022-10-22T12:10:01.622Z,3000.00
2022-10-22T12:11:01.484Z,2708.00
2022-10-22T12:12:01.458Z,2420.00
2022-10-22T12:13:01.520Z,2372.00
2022-10-22T12:14:01.791Z,2384.00
2022-10-22T12:15:02.080Z,2196.00
2022-10-22T12:16:01.730Z,2356.00
2022-10-22T12:17:01.413Z,2212.00
2022-10-22T12:18:02.392Z,1944.00
2022-10-22T12:19:02.247Z,2180.00
2022-10-22T12:20:02.446Z,2232.00
2022-10-22T12:21:01.565Z,2028.00
2022-10-22T12:22:01.431Z,1984.00
2022-10-22T12:23:01.388Z,2004.00
2022-10-22T12:24:01.332Z,2144.00
2022-10-22T12:25:01.365Z,2020.00
2022-10-22T12:26:01.314Z,1876.00
2022-10-22T12:27:01.325Z,2048.00
2022-10-22T12:28:01.294Z,2204.00
2022-10-22T12:29:01.276Z,2264.00
2022-10-22T12:30:01.475Z,2544.00
2022-10-22T12:31:02.090Z,2436.00
2022-10-22T12:32:01.516Z,2464.00
2022-10-22T12:33:01.350Z,2736.00
2022-10-22T12:34:01.261Z,3156.00
2022-10-22T12:35:01.626Z,3364.00
2022-10-22T12:36:01.476Z,3372.00
2022-10-22T12:37:01.227Z,3356.00
2022-10-22T12:38:02.167Z,3128.00
2022-10-22T12:39:01.192Z,3176.00
2022-10-22T12:40:01.178Z,3528.00
2022-10-22T12:41:01.847Z,3408.00
2022-10-22T12:42:01.164Z,3596.00
2022-10-22T12:43:01.395Z,3344.00
2022-10-22T12:44:02.581Z,3512.00
2022-10-22T12:45:01.196Z,3988.00
2022-10-22T12:46:01.930Z,4004.00
2022-10-22T12:47:02.550Z,3296.00
2022-10-22T12:48:01.546Z,3120.00
2022-10-22T12:49:01.057Z,3064.00
2022-10-22T12:50:01.066Z,3260.00
2022-10-22T12:51:02.510Z,3000.00
2022-10-22T12:52:01.044Z,3336.00
2022-10-22T12:53:01.027Z,3348.00
2022-10-22T12:54:01.012Z,3344.00
2022-10-22T12:55:02.021Z,3500.00